CW0725 Weather Reports


Display with metric or nautical units.
time (UTC)temp
F
wind
direction
speed
MPH
gust
MPH
rain 1hr
in
rain 24hr
in
rain mn
in
humidity
%
barometer
mb
20210924004912 77 133 0.0 3.0 0.00 0.00 0.00 23 1018.3
20210924003911 78 125 1.0 4.0 0.00 0.00 0.00 23 1018.1
20210924002911 78 118 1.0 2.0 0.00 0.00 0.00 22 1018.2
20210924001912 79 141 1.0 3.0 0.00 0.00 0.00 22 1018.2
20210924000913 80 109 0.0 1.0 0.00 0.00 0.00 22 1018.1
20210923235912 81 92 0.0 4.0 0.00 0.00 0.00 21 1018.1
20210923234910 81 115 2.0 4.0 0.00 0.00 0.00 21 1018.0
20210923233910 82 115 2.0 4.0 0.00 0.00 0.00 21 1018.1
20210923232927 82 108 2.0 3.0 0.00 0.00 0.00 22 1018.1
20210923231912 83 71 2.0 4.0 0.00 0.00 0.00 22 1018.0
20210923231011 83 93 2.0 4.0 0.00 0.00 0.00 22 1018.1
20210923230012 84 104 2.0 5.0 0.00 0.00 0.00 21 1018.0
20210923225011 84 112 1.0 4.0 0.00 0.00 0.00 21 1018.0
20210923224011 85 83 3.0 6.0 0.00 0.00 0.00 21 1018.1
20210923223011 86 108 2.0 4.0 0.00 0.00 0.00 19 1018.1
20210923222011 86 120 2.0 5.0 0.00 0.00 0.00 19 1018.1
20210923221012 87 88 1.0 3.0 0.00 0.00 0.00 19 1018.1
20210923220011 87 114 1.0 2.0 0.00 0.00 0.00 20 1018.3
20210923215912 87 82 1.0 3.0 0.00 0.00 0.00 19 1018.3
20210923214911 86 192 2.0 3.0 0.00 0.00 0.00 18 1018.2
20210923214010 87 101 2.0 3.0 0.00 0.00 0.00 19 1018.4
20210923213110 87 23 2.0 3.0 0.00 0.00 0.00 19 1018.4
20210923212113 86 13 2.0 5.0 0.00 0.00 0.00 20 1018.4
20210923211113 86 68 2.0 7.0 0.00 0.00 0.00 19 1018.7
20210923210111 86 99 2.0 5.0 0.00 0.00 0.00 20 1018.8
20210923205114 86 225 0.0 1.0 0.00 0.00 0.00 20 1018.9
20210923204210 86 53 3.0 5.0 0.00 0.00 0.00 20 1018.9
20210923203211 86 61 3.0 5.0 0.00 0.00 0.00 20 1019.1
20210923202211 86 32 1.0 2.0 0.00 0.00 0.00 22 1019.2
20210923201310 86 134 0.0 4.0 0.00 0.00 0.00 21 1019.3
20210923200326 87 148 2.0 6.0 0.00 0.00 0.00 22 1019.5
20210923195312 86 300 1.0 2.0 0.00 0.00 0.00 23 1019.6
20210923194312 86 327 2.0 4.0 0.00 0.00 0.00 22 1019.8
20210923193328 88 331 3.0 5.0 0.00 0.00 0.00 22 1020.0
20210923192310 86 270 0.0 2.0 0.00 0.00 0.00 24 1020.2
20210923190310 84 43 0.0 1.0 0.00 0.00 0.00 23 1020.5
20210923185311 83 236 2.0 5.0 0.00 0.00 0.00 25 1020.8
20210923184312 82 219 2.0 8.0 0.00 0.00 0.00 25 1020.9
20210923183312 82 89 2.0 5.0 0.00 0.00 0.00 24 1021.0
20210923182311 81 6 3.0 4.0 0.00 0.00 0.00 24 1021.1
20210923181311 82 14 3.0 6.0 0.00 0.00 0.00 24 1021.3
20210923180410 81 49 3.0 5.0 0.00 0.00 0.00 24 1021.6
20210923175428 83 31 4.0 8.0 0.00 0.00 0.00 25 1021.7
20210923174510 81 104 1.0 4.0 0.00 0.00 0.00 26 1021.8
20210923173511 80 97 2.0 3.0 0.00 0.00 0.00 25 1021.9
20210923172611 81 344 3.0 6.0 0.00 0.00 0.00 26 1022.0
20210923171710 81 39 3.0 7.0 0.00 0.00 0.00 26 1022.2
20210923165811 80 45 0.0 2.0 0.00 0.00 0.00 27 1022.4
20210923164811 79 195 0.0 2.0 0.00 0.00 0.00 29 1022.7
20210923163811 78 90 0.0 0.0 0.00 0.00 0.00 28 1022.7
20210923162812 78 309 2.0 3.0 0.00 0.00 0.00 28 1022.8
20210923161810 78 198 1.0 4.0 0.00 0.00 0.00 29 1023.0
20210923160811 77 143 1.0 2.0 0.00 0.00 0.00 31 1023.1
20210923155814 73 270 0.0 0.0 0.00 0.00 0.00 38 1023.3
20210923022944 69 90 0.0 0.0 0.00 0.00 0.00 35 1023.3
20210923022041 70 90 0.0 0.0 0.00 0.00 0.00 34 1023.2
20210923021043 72 90 0.0 0.0 0.00 0.00 0.00 33 1023.0
20210923020139 73 90 1.0 2.0 0.00 0.00 0.00 32 1023.0
20210923015141 73 90 1.0 2.0 0.00 0.00 0.00 32 1022.8
20210923014239 74 90 1.0 2.0 0.00 0.00 0.00 31 1022.6
20210923013241 74 67 2.0 2.0 0.00 0.00 0.00 30 1022.5
20210923012242 74 67 2.0 3.0 0.00 0.00 0.00 31 1022.5
20210923011242 75 90 2.0 3.0 0.00 0.00 0.00 30 1022.4
20210923010339 75 48 1.0 2.0 0.00 0.00 0.00 28 1022.4